Time;durP1;ratioP1;P1;durP2;ratioP2;P2;SDS_P1;SDS_P2;PMS_P1;PMS_P2;Temp;Humidity;BMP_temperature;BMP_pressure;BME280_temperature;BME280_humidity;BME280_pressure;Samples;Min_cycle;Max_cycle;Signal;HPM_P1;HPM_P2
2022/09/09 00:00:44;;;;;;;2.77;1.63;;;17.60;1.00;;;;;;5046123;28;20492;-72
2022/09/09 00:03:25;;;;;;;6.40;2.03;;;17.50;1.00;;;;;;5039495;28;20442;-71
2022/09/09 00:06:05;;;;;;;3.77;1.90;;;17.30;1.00;;;;;;5043027;28;20470;-71
2022/09/09 00:08:54;;;;;;;5.03;2.00;;;17.10;1.00;;;;;;5048483;28;20476;-71
2022/09/09 00:11:27;;;;;;;5.20;2.20;;;17.00;1.00;;;;;;5039071;28;20519;-71
2022/09/09 00:13:54;;;;;;;5.87;1.93;;;17.00;1.00;;;;;;5048685;28;20409;-71
2022/09/09 00:16:27;;;;;;;5.30;1.83;;;17.00;1.00;;;;;;5053624;28;20921;-71
2022/09/09 00:19:15;;;;;;;3.57;1.90;;;17.10;1.00;;;;;;5048564;28;20758;-72
2022/09/09 00:22:04;;;;;;;4.93;2.50;;;17.20;1.00;;;;;;5043954;28;20470;-72
2022/09/09 00:24:45;;;;;;;6.40;1.97;;;17.30;1.00;;;;;;5048930;28;20424;-71
2022/09/09 00:27:42;;;;;;;3.93;2.20;;;17.30;1.00;;;;;;5038857;28;20440;-71
2022/09/09 00:30:26;;;;;;;5.50;2.20;;;17.40;1.00;;;;;;5041757;28;20419;-71
2022/09/09 00:33:01;;;;;;;4.63;2.03;;;17.40;1.00;;;;;;5053778;28;20428;-71
2022/09/09 00:35:34;;;;;;;3.67;1.90;;;17.40;1.00;;;;;;5064462;28;20479;-72
2022/09/09 00:38:32;;;;;;;3.93;1.73;;;17.40;1.00;;;;;;5056368;28;20420;-71
2022/09/09 00:41:04;;;;;;;3.00;2.00;;;17.50;1.00;;;;;;5056770;28;20467;-72
2022/09/09 00:43:33;;;;;;;4.10;1.80;;;17.50;1.00;;;;;;5049894;28;20440;-73
2022/09/09 00:46:10;;;;;;;5.00;2.07;;;17.50;1.00;;;;;;5056696;28;20468;-71
2022/09/09 00:48:48;;;;;;;6.23;2.40;;;17.60;1.00;;;;;;5048885;28;20909;-71
2022/09/09 00:51:51;;;;;;;4.83;2.00;;;17.60;1.00;;;;;;5040943;28;20436;-71
2022/09/09 00:54:34;;;;;;;4.40;1.73;;;17.60;1.00;;;;;;5039669;28;20774;-71
2022/09/09 00:57:23;;;;;;;3.03;1.77;;;17.60;1.00;;;;;;5043250;28;20469;-71
2022/09/09 00:59:57;;;;;;;5.33;2.03;;;17.60;1.00;;;;;;5049133;28;20435;-71
2022/09/09 01:02:37;;;;;;;4.80;2.10;;;17.60;1.00;;;;;;5050133;28;20467;-72
2022/09/09 01:05:12;;;;;;;4.00;1.77;;;17.60;1.00;;;;;;5035154;28;20424;-72
2022/09/09 01:07:38;;;;;;;8.17;2.10;;;17.70;1.00;;;;;;5050018;28;20782;-72
2022/09/09 01:10:14;;;;;;;5.30;2.10;;;17.70;1.00;;;;;;5052327;28;20912;-72
2022/09/09 01:12:43;;;;;;;4.80;2.20;;;17.70;1.00;;;;;;5048699;28;20443;-72
2022/09/09 01:15:11;;;;;;;5.30;2.37;;;17.80;1.00;;;;;;5042360;28;20555;-71
2022/09/09 01:17:48;;;;;;;4.37;2.03;;;17.80;1.00;;;;;;5048895;28;20836;-71
2022/09/09 01:20:45;;;;;;;5.10;2.10;;;17.80;1.00;;;;;;5051147;28;20951;-71
2022/09/09 01:23:31;;;;;;;3.20;2.10;;;17.80;1.00;;;;;;5043580;28;20440;-72
2022/09/09 01:26:32;;;;;;;8.20;2.10;;;17.80;1.00;;;;;;5037358;28;20459;-71
2022/09/09 01:28:58;;;;;;;4.00;2.20;;;17.90;1.00;;;;;;5041147;28;20443;-71
2022/09/09 01:31:30;;;;;;;3.80;2.03;;;17.80;1.00;;;;;;5050799;28;20419;-71
2022/09/09 01:33:55;;;;;;;4.23;2.17;;;17.90;1.00;;;;;;5030880;28;20207;-71
2022/09/09 01:36:33;;;;;;;6.07;2.00;;;17.80;1.00;;;;;;5043014;28;20816;-71
2022/09/09 01:38:59;;;;;;;7.90;2.50;;;17.80;1.00;;;;;;5045472;28;20181;-71
2022/09/09 01:41:24;;;;;;;3.67;2.10;;;17.90;1.00;;;;;;5043680;28;20455;-71
2022/09/09 01:43:51;;;;;;;4.83;2.73;;;17.90;1.00;;;;;;5052617;28;20188;-71
2022/09/09 01:46:20;;;;;;;4.50;2.23;;;17.90;1.00;;;;;;5064726;28;20183;-71
2022/09/09 01:48:46;;;;;;;6.83;2.50;;;17.80;1.00;;;;;;5068670;28;20430;-71
2022/09/09 01:51:12;;;;;;;7.50;2.10;;;17.70;1.00;;;;;;5045636;28;20823;-72
2022/09/09 01:53:40;;;;;;;3.43;2.33;;;17.70;1.00;;;;;;5032151;28;20182;-71
2022/09/09 01:56:43;;;;;;;16.30;2.30;;;17.60;1.00;;;;;;5042101;28;20196;-71
2022/09/09 01:59:20;;;;;;;6.60;2.10;;;17.50;1.00;;;;;;5031426;28;20583;-71
2022/09/09 02:01:49;;;;;;;4.53;2.27;;;17.60;1.00;;;;;;5034161;28;20456;-72
2022/09/09 02:04:38;;;;;;;5.10;2.20;;;17.50;1.00;;;;;;5034585;28;21006;-72
2022/09/09 02:07:15;;;;;;;5.17;2.10;;;17.50;1.00;;;;;;5044433;28;20774;-71
2022/09/09 02:09:44;;;;;;;11.73;2.37;;;17.50;1.00;;;;;;5051438;28;21062;-71
2022/09/09 02:12:17;;;;;;;7.83;2.50;;;17.50;1.00;;;;;;5044187;28;20509;-72
2022/09/09 02:14:49;;;;;;;6.63;2.30;;;17.50;1.00;;;;;;5050643;28;20428;-72
2022/09/09 02:17:21;;;;;;;7.70;2.50;;;17.50;1.00;;;;;;5055831;28;20424;-71
2022/09/09 02:19:52;;;;;;;10.20;2.20;;;17.50;1.00;;;;;;5051196;28;20416;-71
2022/09/09 02:22:22;;;;;;;3.40;2.20;;;17.50;1.00;;;;;;5050291;28;20506;-72
2022/09/09 02:24:49;;;;;;;7.60;2.07;;;17.50;1.00;;;;;;5051843;28;20458;-72
2022/09/09 02:27:16;;;;;;;7.00;2.30;;;17.60;1.00;;;;;;5050435;28;20507;-71
2022/09/09 02:29:45;;;;;;;6.33;2.50;;;17.60;1.00;;;;;;5051178;28;20875;-71
2022/09/09 02:32:23;;;;;;;7.03;2.13;;;17.60;1.00;;;;;;5048022;28;20412;-71
2022/09/09 02:34:56;;;;;;;3.20;2.13;;;17.60;1.00;;;;;;5050438;28;20431;-71
2022/09/09 02:37:28;;;;;;;5.10;2.20;;;17.50;1.00;;;;;;5048481;28;20426;-72
2022/09/09 02:39:54;;;;;;;5.27;2.10;;;17.50;1.00;;;;;;5051657;28;20979;-71
2022/09/09 02:42:20;;;;;;;4.53;2.00;;;17.40;1.00;;;;;;5047956;28;20459;-71
2022/09/09 02:44:45;;;;;;;4.10;2.00;;;17.40;1.00;;;;;;5052668;28;20411;-71
2022/09/09 02:47:16;;;;;;;10.43;2.27;;;17.40;1.00;;;;;;5053382;28;20584;-71
2022/09/09 02:49:56;;;;;;;11.23;2.07;;;17.40;1.00;;;;;;5051660;28;20639;-71
2022/09/09 02:53:03;;;;;;;4.93;2.00;;;17.40;1.00;;;;;;5048812;28;20793;-71
2022/09/09 02:55:49;;;;;;;3.10;1.70;;;17.30;1.00;;;;;;5030969;28;21176;-71
2022/09/09 02:58:18;;;;;;;8.27;1.80;;;17.20;1.00;;;;;;5043963;28;20425;-71
2022/09/09 03:00:46;;;;;;;5.83;2.20;;;17.20;1.00;;;;;;5038140;28;20832;-71
2022/09/09 03:03:12;;;;;;;5.40;2.20;;;17.20;1.00;;;;;;5048256;28;20470;-72
2022/09/09 03:05:38;;;;;;;3.70;1.90;;;17.20;1.00;;;;;;5035834;28;20452;-72
2022/09/09 03:08:05;;;;;;;4.37;1.80;;;17.20;1.00;;;;;;5046601;28;20662;-72
2022/09/09 03:10:31;;;;;;;4.90;1.83;;;17.10;1.00;;;;;;5048875;28;20183;-71
2022/09/09 03:12:57;;;;;;;3.43;1.70;;;17.10;1.00;;;;;;5048252;28;20479;-71
2022/09/09 03:15:22;;;;;;;4.17;2.00;;;17.10;1.00;;;;;;5049863;28;20451;-71
2022/09/09 03:17:48;;;;;;;5.07;1.90;;;17.10;1.00;;;;;;5049854;28;20256;-72
2022/09/09 03:20:14;;;;;;;3.67;1.60;;;17.00;1.00;;;;;;5044917;28;20188;-71
2022/09/09 03:22:40;;;;;;;3.57;1.90;;;17.00;1.00;;;;;;5048920;28;20288;-71
2022/09/09 03:25:06;;;;;;;6.90;2.10;;;17.00;1.00;;;;;;5049488;28;20257;-71
2022/09/09 03:27:32;;;;;;;2.50;1.60;;;16.90;1.00;;;;;;5050435;28;20416;-71
2022/09/09 03:29:58;;;;;;;2.60;1.33;;;16.90;1.40;;;;;;5049376;28;20431;-71
2022/09/09 03:32:25;;;;;;;6.00;1.80;;;16.80;2.40;;;;;;5047501;28;20238;-71
2022/09/09 03:34:51;;;;;;;6.60;1.80;;;16.80;2.20;;;;;;5049491;28;20272;-71
2022/09/09 03:37:17;;;;;;;4.23;1.50;;;16.70;3.70;;;;;;5050280;28;20416;-71
2022/09/09 03:39:43;;;;;;;4.70;1.60;;;16.80;3.90;;;;;;5045294;28;20429;-71
2022/09/09 03:42:13;;;;;;;4.13;1.70;;;16.80;3.90;;;;;;5047714;28;20205;-71
2022/09/09 03:44:39;;;;;;;3.03;1.57;;;16.80;3.90;;;;;;5047518;28;21047;-71
2022/09/09 03:47:06;;;;;;;4.03;1.77;;;16.80;3.10;;;;;;5040607;28;20443;-71
2022/09/09 03:49:31;;;;;;;2.70;1.93;;;16.80;3.60;;;;;;5049114;28;20184;-71
2022/09/09 03:51:58;;;;;;;4.30;1.90;;;16.80;3.70;;;;;;5048331;28;20790;-71
2022/09/09 03:54:25;;;;;;;10.43;2.10;;;16.90;3.20;;;;;;5048971;28;20585;-71
2022/09/09 03:56:50;;;;;;;6.50;1.97;;;16.90;2.20;;;;;;5049286;28;20462;-71
2022/09/09 03:59:16;;;;;;;5.30;1.77;;;17.00;2.00;;;;;;5048925;28;20431;-71
2022/09/09 04:01:41;;;;;;;5.00;1.80;;;17.00;1.80;;;;;;5050135;28;20201;-71
2022/09/09 04:04:08;;;;;;;3.90;1.60;;;17.00;1.60;;;;;;5048882;28;20586;-72
2022/09/09 04:06:34;;;;;;;5.27;1.83;;;17.00;1.00;;;;;;5050372;28;20181;-71
2022/09/09 04:09:02;;;;;;;6.97;1.97;;;17.00;1.00;;;;;;5048895;28;20428;-71
2022/09/09 04:11:27;;;;;;;7.27;1.70;;;17.10;1.00;;;;;;5041275;28;20173;-71
2022/09/09 04:13:53;;;;;;;4.07;1.83;;;17.10;1.00;;;;;;5047192;28;20447;-72
2022/09/09 04:16:19;;;;;;;5.77;2.10;;;17.10;1.00;;;;;;5056226;28;20193;-71
2022/09/09 04:18:45;;;;;;;3.47;1.90;;;17.00;1.00;;;;;;5056217;28;20655;-71
2022/09/09 04:21:12;;;;;;;5.07;1.63;;;17.20;1.00;;;;;;5048690;28;20446;-71
2022/09/09 04:23:38;;;;;;;5.20;1.80;;;17.20;1.00;;;;;;5049350;28;20331;-71
2022/09/09 04:26:04;;;;;;;3.10;1.77;;;17.20;1.00;;;;;;5048731;28;20447;-71
2022/09/09 04:28:32;;;;;;;3.90;1.87;;;17.10;1.00;;;;;;5049604;28;20502;-71
2022/09/09 04:31:08;;;;;;;8.70;2.07;;;17.20;1.00;;;;;;5047759;28;20428;-71
2022/09/09 04:33:35;;;;;;;6.20;1.90;;;17.20;1.00;;;;;;5049057;28;20951;-71
2022/09/09 04:36:01;;;;;;;2.97;1.60;;;17.20;1.00;;;;;;5051555;28;20526;-71
2022/09/09 04:38:26;;;;;;;3.90;1.70;;;17.20;1.00;;;;;;5049946;28;20554;-71
2022/09/09 04:40:53;;;;;;;3.03;1.70;;;17.20;1.00;;;;;;5049052;28;20184;-71
2022/09/09 04:43:19;;;;;;;3.90;1.70;;;17.20;1.00;;;;;;5051976;28;20188;-72
2022/09/09 04:45:48;;;;;;;3.17;1.40;;;17.10;1.30;;;;;;5059021;28;20452;-72
2022/09/09 04:48:13;;;;;;;2.10;1.40;;;17.10;1.80;;;;;;5049430;28;20185;-71
2022/09/09 04:50:40;;;;;;;2.63;1.40;;;17.00;3.40;;;;;;5048575;28;20541;-71
2022/09/09 04:53:06;;;;;;;2.97;1.50;;;17.10;2.80;;;;;;5052525;28;20220;-71
2022/09/09 04:55:33;;;;;;;4.40;1.77;;;17.00;2.90;;;;;;5051370;28;20556;-72
2022/09/09 04:58:06;;;;;;;5.37;1.70;;;17.10;2.90;;;;;;5053503;28;20408;-71
2022/09/09 05:00:34;;;;;;;5.00;1.40;;;17.10;2.60;;;;;;5051327;28;20429;-71
2022/09/09 05:03:06;;;;;;;2.87;1.67;;;17.00;2.20;;;;;;5040908;28;20471;-71
2022/09/09 05:05:34;;;;;;;2.90;1.63;;;17.00;2.00;;;;;;5053489;28;20523;-71
2022/09/09 05:08:08;;;;;;;6.90;1.80;;;17.20;2.60;;;;;;5051389;28;20435;-71
2022/09/09 05:10:37;;;;;;;2.73;1.40;;;17.10;3.00;;;;;;5052286;28;20434;-71
2022/09/09 05:13:04;;;;;;;2.90;1.50;;;17.10;1.90;;;;;;5052250;28;20423;-71
2022/09/09 05:15:30;;;;;;;1.83;1.47;;;17.10;2.70;;;;;;5055410;28;22029;-72
2022/09/09 05:18:00;;;;;;;2.03;1.47;;;17.10;2.40;;;;;;5048400;28;20510;-72
2022/09/09 05:20:26;;;;;;;2.17;1.53;;;17.20;4.00;;;;;;5051496;28;20177;-71
2022/09/09 05:22:56;;;;;;;2.60;1.50;;;17.20;3.70;;;;;;5059910;28;20454;-72
2022/09/09 05:25:24;;;;;;;2.77;1.50;;;17.20;2.00;;;;;;5076590;28;20431;-72
2022/09/09 05:27:49;;;;;;;2.30;1.60;;;17.20;3.50;;;;;;5071170;28;20470;-72
2022/09/09 05:30:15;;;;;;;4.10;1.70;;;17.20;4.10;;;;;;5061507;28;20467;-72
2022/09/09 05:32:41;;;;;;;1.90;1.43;;;17.20;2.60;;;;;;5044295;28;20555;-75
2022/09/09 05:35:07;;;;;;;2.67;1.70;;;17.30;3.40;;;;;;5041447;28;20464;-77
2022/09/09 05:37:32;;;;;;;3.93;1.53;;;17.40;2.30;;;;;;5043907;28;20205;-76
2022/09/09 05:39:58;;;;;;;2.60;1.40;;;17.40;1.80;;;;;;5052333;28;20188;-76
2022/09/09 05:42:24;;;;;;;4.53;1.70;;;17.50;1.00;;;;;;5052178;28;20205;-76
2022/09/09 05:44:50;;;;;;;2.70;1.50;;;17.60;1.00;;;;;;5060434;28;20212;-76
2022/09/09 05:47:16;;;;;;;3.60;1.50;;;17.80;1.00;;;;;;5051689;28;20193;-76
2022/09/09 05:49:42;;;;;;;4.10;1.60;;;17.60;1.00;;;;;;5052847;28;20846;-77
2022/09/09 05:52:09;;;;;;;3.77;1.60;;;17.60;1.00;;;;;;5042854;28;20818;-74
2022/09/09 05:54:35;;;;;;;3.60;1.60;;;17.60;1.00;;;;;;5049559;28;20555;-76
2022/09/09 05:57:00;;;;;;;4.80;1.40;;;17.60;1.00;;;;;;5049351;28;20720;-75
2022/09/09 05:59:26;;;;;;;2.40;1.43;;;17.70;1.00;;;;;;5050384;28;20707;-76
2022/09/09 06:01:52;;;;;;;5.53;1.40;;;17.80;1.00;;;;;;5050988;28;20242;-75
2022/09/09 06:04:17;;;;;;;2.90;1.43;;;18.00;1.00;;;;;;5050455;28;20567;-76
2022/09/09 06:06:43;;;;;;;6.57;1.30;;;18.20;1.00;;;;;;5044656;28;20734;-76
2022/09/09 06:09:10;;;;;;;3.03;1.53;;;18.30;1.00;;;;;;5043915;28;20204;-77
2022/09/09 06:11:37;;;;;;;4.00;1.40;;;18.30;1.00;;;;;;5044640;28;20173;-75
2022/09/09 06:14:03;;;;;;;3.20;1.60;;;18.40;1.00;;;;;;5043163;28;20511;-75
2022/09/09 06:16:32;;;;;;;2.67;1.40;;;18.40;1.00;;;;;;5043481;28;20906;-76
2022/09/09 06:18:58;;;;;;;2.77;1.53;;;18.50;1.00;;;;;;5043955;28;20424;-72
2022/09/09 06:21:30;;;;;;;3.67;1.30;;;18.60;1.00;;;;;;5030789;28;20471;-72
2022/09/09 06:23:56;;;;;;;5.13;1.50;;;18.70;1.00;;;;;;5043207;28;20948;-74
2022/09/09 06:26:25;;;;;;;8.43;1.70;;;18.90;1.00;;;;;;5047448;28;20436;-73
2022/09/09 06:28:52;;;;;;;3.07;1.50;;;19.00;1.00;;;;;;5039731;28;20471;-72
2022/09/09 06:31:21;;;;;;;5.30;1.70;;;19.30;1.00;;;;;;5046724;28;20425;-72
2022/09/09 06:33:49;;;;;;;3.60;1.40;;;19.70;1.00;;;;;;5049899;28;20428;-72
2022/09/09 06:36:17;;;;;;;5.40;1.40;;;20.30;1.00;;;;;;5041826;28;20456;-72
2022/09/09 06:38:43;;;;;;;3.47;1.50;;;20.10;1.00;;;;;;5055210;28;21063;-72
2022/09/09 06:41:10;;;;;;;2.80;1.27;;;19.90;1.00;;;;;;5039503;28;20526;-72
2022/09/09 06:43:36;;;;;;;3.00;1.43;;;20.20;1.00;;;;;;5048693;28;20416;-72
2022/09/09 06:46:10;;;;;;;4.60;1.57;;;20.40;1.00;;;;;;5044411;28;20447;-72
2022/09/09 06:48:40;;;;;;;8.10;1.50;;;20.50;1.00;;;;;;5058573;28;20176;-72
2022/09/09 06:51:13;;;;;;;8.60;1.67;;;20.40;1.00;;;;;;5050609;28;20424;-72
2022/09/09 06:53:40;;;;;;;5.00;1.80;;;20.50;1.00;;;;;;5053803;28;20498;-72
2022/09/09 06:56:27;;;;;;;4.00;1.50;;;20.40;1.00;;;;;;5053980;28;20454;-72
2022/09/09 06:58:54;;;;;;;3.07;1.40;;;20.10;1.00;;;;;;5043803;28;20639;-72
2022/09/09 07:01:25;;;;;;;5.93;1.63;;;20.20;1.00;;;;;;5040862;28;20471;-73
2022/09/09 07:03:52;;;;;;;4.17;1.70;;;20.10;1.00;;;;;;5046664;28;20424;-72
2022/09/09 07:06:21;;;;;;;4.27;1.60;;;20.10;1.00;;;;;;5047492;28;20454;-72
2022/09/09 07:08:55;;;;;;;7.33;1.50;;;20.00;1.00;;;;;;5056681;28;20422;-72
2022/09/09 07:11:22;;;;;;;5.90;1.77;;;19.80;1.00;;;;;;5035425;28;20787;-72
2022/09/09 07:13:49;;;;;;;4.30;1.30;;;19.80;1.00;;;;;;5045327;28;20412;-73
2022/09/09 07:16:17;;;;;;;5.10;1.67;;;19.70;1.00;;;;;;5048405;28;20451;-72
2022/09/09 07:18:43;;;;;;;5.50;1.90;;;20.00;1.00;;;;;;5047296;28;20408;-72
2022/09/09 07:21:11;;;;;;;6.83;1.40;;;20.80;1.00;;;;;;5047456;28;20423;-72
2022/09/09 07:23:38;;;;;;;8.17;1.63;;;21.70;1.00;;;;;;5048562;28;20459;-72
2022/09/09 07:26:09;;;;;;;5.30;1.90;;;22.70;1.00;;;;;;5055800;28;20540;-73
2022/09/09 07:28:34;;;;;;;4.97;1.40;;;23.60;1.00;;;;;;5050035;28;20521;-74
2022/09/09 07:31:04;;;;;;;4.73;1.63;;;24.00;1.00;;;;;;5039004;28;20518;-72
2022/09/09 07:33:33;;;;;;;5.93;1.53;;;24.80;1.00;;;;;;5038477;28;20191;-73
2022/09/09 07:36:32;;;;;;;3.97;1.67;;;24.90;1.00;;;;;;5050062;28;20497;-72
2022/09/09 07:39:01;;;;;;;5.73;1.50;;;25.30;1.00;;;;;;5015830;28;20424;-73
2022/09/09 07:41:33;;;;;;;7.40;1.50;;;26.20;1.00;;;;;;5044032;28;20550;-72
2022/09/09 07:44:00;;;;;;;6.40;1.73;;;26.70;1.00;;;;;;5048884;28;20845;-72
2022/09/09 07:46:26;;;;;;;6.63;2.00;;;26.80;1.00;;;;;;5038768;28;20459;-73
2022/09/09 07:48:54;;;;;;;5.67;1.97;;;26.90;1.00;;;;;;5042003;28;20432;-72
2022/09/09 07:51:24;;;;;;;5.20;1.43;;;26.20;1.00;;;;;;5048311;28;20166;-73
2022/09/09 07:53:57;;;;;;;4.70;1.83;;;25.90;1.00;;;;;;5040787;28;20516;-72
2022/09/09 07:56:23;;;;;;;6.63;2.00;;;26.30;1.00;;;;;;5040435;28;20471;-73
2022/09/09 07:58:50;;;;;;;5.67;1.40;;;26.70;1.00;;;;;;5041078;28;20211;-72
2022/09/09 08:01:22;;;;;;;5.93;1.77;;;25.80;1.00;;;;;;5041176;28;20233;-73
2022/09/09 08:03:54;;;;;;;3.90;1.50;;;25.50;1.00;;;;;;5048118;28;20427;-73
2022/09/09 08:06:19;;;;;;;3.80;1.47;;;26.10;1.00;;;;;;5050762;28;20457;-72
2022/09/09 08:08:49;;;;;;;7.30;1.57;;;27.20;1.00;;;;;;5048181;28;20594;-73
2022/09/09 08:11:15;;;;;;;9.90;2.30;;;28.10;1.00;;;;;;5045158;28;20176;-73
2022/09/09 08:13:43;;;;;;;4.80;1.70;;;29.00;1.00;;;;;;5046549;28;20168;-73
2022/09/09 08:16:23;;;;;;;5.40;1.60;;;28.00;1.00;;;;;;5050214;28;20196;-73
2022/09/09 08:18:51;;;;;;;6.93;1.63;;;26.40;1.00;;;;;;5044330;28;20264;-73
2022/09/09 08:21:19;;;;;;;5.43;1.40;;;25.70;1.00;;;;;;5048027;28;20419;-72
2022/09/09 08:23:47;;;;;;;5.90;1.90;;;25.00;1.00;;;;;;5047881;28;20514;-72
2022/09/09 08:26:17;;;;;;;6.97;1.60;;;25.20;1.00;;;;;;5051093;28;20506;-73
2022/09/09 08:28:44;;;;;;;8.80;1.53;;;25.40;1.00;;;;;;5048947;28;20446;-72
2022/09/09 08:31:16;;;;;;;4.37;1.63;;;26.40;1.00;;;;;;5048694;28;20906;-72
2022/09/09 08:33:45;;;;;;;5.00;1.83;;;26.90;1.00;;;;;;5041155;28;20972;-72
2022/09/09 08:36:15;;;;;;;7.93;1.63;;;26.20;1.00;;;;;;5043486;28;20478;-73
2022/09/09 08:38:41;;;;;;;8.23;1.63;;;25.10;1.00;;;;;;5048401;28;20419;-73
2022/09/09 08:41:25;;;;;;;4.00;1.60;;;24.00;1.00;;;;;;5041437;28;20435;-73
2022/09/09 08:44:00;;;;;;;5.33;1.70;;;22.90;1.00;;;;;;5049318;28;20921;-72
2022/09/09 08:46:59;;;;;;;7.00;2.00;;;22.50;1.00;;;;;;5056148;28;20854;-73
2022/09/09 08:50:02;;;;;;;8.03;2.00;;;22.00;1.00;;;;;;5049569;28;20411;-72
2022/09/09 08:52:37;;;;;;;4.73;1.80;;;21.60;1.00;;;;;;5041587;28;20423;-72
2022/09/09 08:55:15;;;;;;;9.80;1.73;;;21.30;1.00;;;;;;5030830;28;20519;-72
2022/09/09 08:57:41;;;;;;;8.47;1.50;;;21.20;1.00;;;;;;5045976;28;20447;-73
2022/09/09 09:00:10;;;;;;;5.43;1.90;;;21.40;1.00;;;;;;5047155;28;20458;-72
2022/09/09 09:02:46;;;;;;;6.77;2.40;;;21.90;1.00;;;;;;5044115;28;20701;-72
2022/09/09 09:05:20;;;;;;;3.40;1.70;;;22.20;1.00;;;;;;5045119;28;20454;-73
2022/09/09 09:07:55;;;;;;;5.90;1.77;;;22.20;1.00;;;;;;5049061;28;20978;-73
2022/09/09 09:10:35;;;;;;;8.90;1.77;;;22.30;1.00;;;;;;5045178;28;20530;-72
2022/09/09 09:13:01;;;;;;;5.20;1.70;;;22.60;1.00;;;;;;5047360;28;20438;-72
2022/09/09 09:15:36;;;;;;;5.40;1.40;;;22.90;1.00;;;;;;5049833;28;20542;-72
2022/09/09 09:18:03;;;;;;;5.33;1.70;;;23.20;1.00;;;;;;5037277;28;20960;-72
2022/09/09 09:20:41;;;;;;;6.07;1.83;;;23.00;1.00;;;;;;5050288;28;20921;-73
2022/09/09 09:23:15;;;;;;;5.10;1.87;;;23.40;1.00;;;;;;5046238;28;20462;-72
2022/09/09 09:25:44;;;;;;;5.07;1.83;;;23.70;1.00;;;;;;5053050;28;20525;-73
2022/09/09 09:28:21;;;;;;;3.80;1.70;;;25.30;1.00;;;;;;5051666;28;20438;-73
2022/09/09 09:31:01;;;;;;;6.53;2.07;;;26.10;1.00;;;;;;5052815;28;20419;-73
2022/09/09 09:33:44;;;;;;;5.80;1.70;;;27.40;1.00;;;;;;5047450;28;20502;-73
2022/09/09 09:36:10;;;;;;;5.57;1.70;;;29.00;1.00;;;;;;5052701;28;20476;-73
2022/09/09 09:38:37;;;;;;;5.70;2.10;;;30.20;1.00;;;;;;5051359;28;20181;-74
2022/09/09 09:41:02;;;;;;;5.37;1.70;;;30.00;1.00;;;;;;5045715;28;20744;-73
2022/09/09 09:43:32;;;;;;;4.90;1.87;;;30.30;1.00;;;;;;5049089;28;20750;-73
2022/09/09 09:45:58;;;;;;;4.50;1.70;;;30.30;1.00;;;;;;5059612;28;20189;-73
2022/09/09 09:48:25;;;;;;;4.43;1.33;;;30.20;1.00;;;;;;5047268;28;20173;-73
2022/09/09 09:51:15;;;;;;;3.97;1.50;;;30.20;1.00;;;;;;5052730;28;20165;-74
2022/09/09 09:53:41;;;;;;;6.07;1.80;;;30.70;1.00;;;;;;5049037;28;20179;-73
2022/09/09 09:56:13;;;;;;;8.98;1.65;;;30.60;1.00;;;;;;5053591;28;20196;-73
2022/09/09 09:58:44;;;;;;;4.70;1.50;;;28.80;1.00;;;;;;5052299;28;20171;-73
2022/09/09 10:01:27;;;;;;;5.80;2.30;;;27.30;1.00;;;;;;5045621;28;20203;-73
2022/09/09 10:04:13;;;;;;;5.03;1.70;;;26.20;1.00;;;;;;5033494;28;21018;-73
2022/09/09 10:06:39;;;;;;;4.27;1.87;;;26.30;1.00;;;;;;5049107;28;20443;-74
2022/09/09 10:09:33;;;;;;;4.70;1.60;;;26.40;1.00;;;;;;5052832;28;20917;-73
2022/09/09 10:12:20;;;;;;;6.97;2.43;;;26.40;1.00;;;;;;5057214;28;20904;-73
2022/09/09 10:15:13;;;;;;;6.13;1.73;;;25.70;1.00;;;;;;5072523;28;20407;-73
2022/09/09 10:18:01;;;;;;;7.20;1.77;;;24.70;1.00;;;;;;5067537;28;20431;-73
2022/09/09 10:21:06;;;;;;;5.33;1.63;;;24.40;1.00;;;;;;5053055;28;20399;-73
2022/09/09 10:23:57;;;;;;;5.63;2.00;;;24.30;1.00;;;;;;5043623;28;20489;-73
2022/09/09 10:26:39;;;;;;;4.97;1.90;;;24.10;1.00;;;;;;5044662;28;20446;-73
2022/09/09 10:29:32;;;;;;;4.40;1.53;;;24.50;1.00;;;;;;5048153;28;20988;-73
2022/09/09 10:32:10;;;;;;;3.87;1.57;;;25.30;1.00;;;;;;5049100;28;20423;-73
2022/09/09 10:34:56;;;;;;;5.03;1.63;;;25.80;1.00;;;;;;5052448;28;20478;-73
2022/09/09 10:37:57;;;;;;;3.70;1.63;;;25.70;1.00;;;;;;5049864;28;20893;-73
2022/09/09 10:40:32;;;;;;;4.53;1.40;;;27.00;1.00;;;;;;5039919;28;20426;-73
2022/09/09 10:43:35;;;;;;;4.57;1.33;;;30.00;1.00;;;;;;5048326;28;20554;-73
2022/09/09 10:46:23;;;;;;;5.60;1.40;;;31.10;1.00;;;;;;5038467;28;20529;-73
2022/09/09 10:49:04;;;;;;;3.45;1.30;;;32.80;1.00;;;;;;5051485;28;20172;-73
2022/09/09 10:52:05;;;;;;;3.83;1.35;;;32.90;1.00;;;;;;5046866;28;20495;-74
2022/09/09 10:54:51;;;;;;;3.33;1.30;;;33.40;1.00;;;;;;5033619;28;20172;-73
2022/09/09 10:57:44;;;;;;;4.60;1.50;;;34.70;1.00;;;;;;5046311;28;20578;-74
2022/09/09 11:00:22;;;;;;;5.72;1.52;;;36.30;1.00;;;;;;5030492;28;20191;-74
2022/09/09 11:02:55;;;;;;;5.03;1.60;;;36.00;1.00;;;;;;5044295;28;20307;-74
2022/09/09 11:05:57;;;;;;;5.20;1.42;;;35.60;1.00;;;;;;5046517;28;20726;-74
2022/09/09 11:08:25;;;;;;;3.53;1.40;;;32.90;1.00;;;;;;5046279;28;20586;-74
2022/09/09 11:11:03;;;;;;;4.53;1.55;;;31.70;1.00;;;;;;5032495;28;20179;-73
2022/09/09 11:13:48;;;;;;;5.38;1.60;;;30.60;1.00;;;;;;5047522;28;20691;-73
2022/09/09 11:16:36;;;;;;;5.25;1.60;;;32.30;1.00;;;;;;5041745;28;20566;-74
2022/09/09 11:19:11;;;;;;;4.30;1.65;;;34.20;1.00;;;;;;5040053;28;20179;-78
2022/09/09 11:21:49;;;;;;;3.50;1.40;;;33.80;1.00;;;;;;5048678;28;20203;-74
2022/09/09 11:24:29;;;;;;;6.32;1.77;;;33.30;1.00;;;;;;5039787;28;20169;-74
2022/09/09 11:27:20;;;;;;;4.53;1.80;;;32.40;1.00;;;;;;5050433;28;20255;-74
2022/09/09 11:29:53;;;;;;;3.42;1.35;;;32.00;1.00;;;;;;5050538;28;20181;-74
2022/09/09 11:32:19;;;;;;;7.28;1.75;;;32.50;1.00;;;;;;5050275;28;20666;-74
2022/09/09 11:35:05;;;;;;;4.70;1.50;;;33.10;1.00;;;;;;5045564;28;20181;-74
2022/09/09 11:37:51;;;;;;;6.00;1.98;;;33.40;1.00;;;;;;5037224;28;20263;-74
2022/09/09 11:40:22;;;;;;;5.95;1.65;;;32.80;1.00;;;;;;5030559;28;20177;-74
2022/09/09 11:42:49;;;;;;;4.93;2.10;;;33.20;1.00;;;;;;5030562;28;20213;-74
2022/09/09 11:45:25;;;;;;;7.55;1.67;;;33.80;1.00;;;;;;5031401;28;20220;-74
2022/09/09 11:47:59;;;;;;;3.70;1.20;;;34.00;1.00;;;;;;5029209;28;20176;-74
2022/09/09 11:50:24;;;;;;;4.63;1.58;;;33.20;1.00;;;;;;5031536;28;20256;-74
2022/09/09 11:52:51;;;;;;;4.90;1.60;;;32.70;1.00;;;;;;5032090;28;20197;-74
2022/09/09 11:55:34;;;;;;;5.85;1.70;;;33.10;1.00;;;;;;5030378;28;20565;-74
2022/09/09 11:58:05;;;;;;;3.28;1.40;;;32.60;1.00;;;;;;5031834;28;20177;-74
2022/09/09 12:00:33;;;;;;;4.32;1.40;;;33.40;1.00;;;;;;5030307;28;20643;-74
2022/09/09 12:02:59;;;;;;;5.05;1.45;;;32.80;1.00;;;;;;5030067;28;20215;-74
2022/09/09 12:05:42;;;;;;;3.42;1.50;;;33.00;1.00;;;;;;5030303;28;20205;-74
2022/09/09 12:08:11;;;;;;;4.05;1.42;;;33.80;1.00;;;;;;5032728;28;20206;-74
2022/09/09 12:10:39;;;;;;;5.15;1.50;;;34.00;1.00;;;;;;5029713;28;20278;-74
2022/09/09 12:13:25;;;;;;;3.70;1.45;;;34.60;1.00;;;;;;5029809;28;20264;-74
2022/09/09 12:16:02;;;;;;;3.97;1.42;;;33.60;1.00;;;;;;5034401;28;20220;-74
2022/09/09 12:18:44;;;;;;;7.10;1.52;;;31.60;1.00;;;;;;5029321;28;20177;-73
2022/09/09 12:21:37;;;;;;;6.30;1.70;;;29.20;1.00;;;;;;5030514;28;20192;-73
2022/09/09 12:24:10;;;;;;;4.20;1.40;;;28.10;1.00;;;;;;5030602;28;20231;-73
2022/09/09 12:26:47;;;;;;;5.03;1.43;;;27.60;1.00;;;;;;5033164;28;20825;-73
2022/09/09 12:29:18;;;;;;;4.33;1.50;;;27.20;1.00;;;;;;5031379;28;20596;-73
2022/09/09 12:31:47;;;;;;;5.10;1.57;;;26.30;1.00;;;;;;5031360;28;20435;-73
2022/09/09 12:34:25;;;;;;;6.40;1.60;;;25.20;1.00;;;;;;5029669;28;20428;-72
2022/09/09 12:36:59;;;;;;;3.17;1.23;;;24.60;1.00;;;;;;5031193;28;20999;-72
2022/09/09 12:39:37;;;;;;;3.90;1.40;;;24.20;1.00;;;;;;5032477;28;20792;-72
2022/09/09 12:42:03;;;;;;;7.90;1.63;;;23.90;1.00;;;;;;5029086;28;20832;-72
2022/09/09 12:44:29;;;;;;;3.20;1.60;;;;;;;;;;5030260;28;20886;-72
2022/09/09 12:46:59;;;;;;;3.40;1.30;;;23.70;1.00;;;;;;5029571;28;20474;-72
2022/09/09 12:49:28;;;;;;;5.10;1.60;;;24.10;1.00;;;;;;5032585;28;20252;-72
2022/09/09 12:51:54;;;;;;;4.07;1.57;;;25.30;1.00;;;;;;5031409;28;20514;-72
2022/09/09 12:54:21;;;;;;;7.37;1.60;;;25.60;1.00;;;;;;5030235;28;20447;-72
2022/09/09 12:56:48;;;;;;;5.00;1.60;;;26.20;1.00;;;;;;5035374;28;20447;-73
2022/09/09 12:59:25;;;;;;;5.60;1.83;;;26.70;1.00;;;;;;5036915;28;20490;-72
2022/09/09 13:01:58;;;;;;;4.40;1.30;;;26.20;1.00;;;;;;5033742;28;20805;-72
2022/09/09 13:04:24;;;;;;;3.60;1.60;;;26.00;1.00;;;;;;5038071;28;20430;-71
2022/09/09 13:06:49;;;;;;;6.70;1.87;;;25.30;1.00;;;;;;5034224;28;20450;-73
2022/09/09 13:09:15;;;;;;;5.73;1.73;;;24.60;1.00;;;;;;5036053;28;20177;-72
2022/09/09 13:11:50;;;;;;;8.47;1.70;;;24.10;1.00;;;;;;5034999;28;20213;-72
2022/09/09 13:14:37;;;;;;;5.10;1.80;;;23.60;1.00;;;;;;5033958;28;20192;-72
2022/09/09 13:17:05;;;;;;;4.93;1.50;;;23.20;1.00;;;;;;5038231;28;20434;-72
2022/09/09 13:19:38;;;;;;;4.97;1.60;;;23.30;1.00;;;;;;5048356;28;20489;-72
2022/09/09 13:22:20;;;;;;;5.43;1.50;;;22.90;1.00;;;;;;5047906;28;20821;-72
2022/09/09 13:24:46;;;;;;;5.37;1.40;;;22.70;1.00;;;;;;5051104;28;20461;-72
2022/09/09 13:27:32;;;;;;;5.87;1.60;;;22.30;1.00;;;;;;5038899;28;20486;-72